Главная страница
METAR-TAF:

METAR-TAF

Аэропорты :

Каракас, Венесуэла

широта: 10-36N, долгота: 066-59W, высота над уровнем моря: 43 м

Текущие метеонаблюдения

Эта сводка был подготовлена 40 минут назад, в 03:00 UTC
Штиль
Температура 26°C
Влажность 79%
Давление 1011 hPa
Видимость 10 км и более
Рассеянная облачность на высоте 1600 фута

METAR: SVMI 150300Z 00000KT 9999 BKN016 26/22 Q1011

Время: 23:40 (03:40 UTC)

Прогноз

Эта сводка был подготовлена 5 часа и 40 минут назад, в 22:00 UTC
Прогноз действительный с 15-го 00 UTC до 16-го 00 UTC
Ветер 4 Узел от южный
Видимость 10 км и более
Отдельные облака на высоте 1600 фута
Рассеянная облачность на высоте 2000 фута
изменения
С 15-го 06 UTC до 15-го 11 UTC
Ветер 2 Узел от западно-северо-западный
Видимость: 9000 м
Отдельные облака на высоте 7000 фута
Рассеянная облачность на высоте 1600 фута
небольшой морось

TAF: SVMI 142200Z 1500/1600 19004KT 9999 SCT016 BKN020 TX31/18Z TN22/08Z BECMG 1506/1511 30002KT 9000 -DZ SCT070 BKN016

Метеонаблюдения и прогнозы для более 4000 аэропортов (сводки METAR и TAF).

Имеющиеся станции представлены на карте желтыми и красными точками.

Чтобы увидеть название станции, наведите на нее мышь.

Затем щелкните, чтобы увидеть метеонаблюдения и метеопрогнозы.

Управление картой: чтобы увеличить масштаб, щелкните зеленые кнопки с черным крестиком; чтобы уменьшить масштаб, щелкните зеленую кнопку с тире; для просмотра соседних карт щелкайте зеленые стрелки.


METAR-TAF: